Terminal Aerodrome Forecast
Issued by NWS Cleveland, OH

Home | Current Version | Previous Version | Text Only | Print | Product List | Glossary On
Versions: 1 2 3 4 5 6 7 8 9 10 11 12 13 14 15 16 17 18 19 20 21 22 23 24 25 26 27 28 29 30 31 32 33 34 35 36 37 38 39 40 41 42 43 44 45 46 47 48 49 50
000
FTUS41 KCLE 171829 AAA
TAFTOL
TAF AMD
KTOL 171829Z 1718/1818 35005KT P6SM VCSH SCT015 BKN040
     FM172100 36007KT P6SM SCT060
     FM180200 05004KT P6SM SCT200
     FM181400 20005KT P6SM SCT200
     FM181600 21008KT P6SM BKN200=

USA.gov is the U.S. government's official web portal to all federal, state and local government web resources and services.